createdAt,value
2019-04-20T00:01:29.407Z,8.80
2019-04-20T00:03:53.911Z,14.20
2019-04-20T00:06:19.669Z,7.53
2019-04-20T00:08:46.268Z,10.33
2019-04-20T00:11:19.823Z,8.10
2019-04-20T00:13:47.668Z,8.47
2019-04-20T00:16:08.330Z,9.17
2019-04-20T00:18:41.365Z,8.20
2019-04-20T00:21:09.989Z,9.20
2019-04-20T00:23:45.059Z,8.37
2019-04-20T00:26:26.556Z,11.57
2019-04-20T00:29:02.692Z,11.50
2019-04-20T00:31:27.133Z,9.37
2019-04-20T00:33:50.461Z,7.43
2019-04-20T00:36:07.251Z,8.63
2019-04-20T00:38:40.815Z,9.87
2019-04-20T00:41:05.610Z,11.73
2019-04-20T00:43:32.823Z,10.63
2019-04-20T00:46:04.640Z,14.33
2019-04-20T00:48:35.315Z,13.63
2019-04-20T00:51:05.723Z,8.80
2019-04-20T00:53:26.212Z,12.73
2019-04-20T00:55:48.498Z,8.43
2019-04-20T00:58:20.182Z,54.00
2019-04-20T01:01:07.273Z,7.63
2019-04-20T01:03:24.751Z,12.20
2019-04-20T01:06:08.298Z,7.80
2019-04-20T01:08:23.346Z,7.80
2019-04-20T01:10:51.996Z,11.80
2019-04-20T01:13:20.073Z,7.13
2019-04-20T01:15:51.559Z,10.60
2019-04-20T01:18:14.003Z,8.40
2019-04-20T01:20:38.952Z,9.70
2019-04-20T01:23:11.814Z,9.50
2019-04-20T01:25:37.634Z,12.60
2019-04-20T01:28:14.766Z,7.60
2019-04-20T01:30:35.947Z,6.37
2019-04-20T01:33:13.701Z,6.90
2019-04-20T01:35:43.913Z,6.90
2019-04-20T01:38:12.535Z,8.30
2019-04-20T01:40:19.595Z,11.47
2019-04-20T01:42:45.104Z,6.77
2019-04-20T01:45:18.066Z,11.13
2019-04-20T01:47:43.968Z,7.43
2019-04-20T01:50:11.797Z,7.13
2019-04-20T01:52:48.279Z,7.20
2019-04-20T01:55:24.503Z,9.80
2019-04-20T01:58:02.896Z,9.10
2019-04-20T02:00:22.618Z,7.37
2019-04-20T02:02:53.890Z,7.43
2019-04-20T02:05:22.881Z,7.40
2019-04-20T02:07:47.534Z,8.47
2019-04-20T02:10:14.722Z,7.57
2019-04-20T02:12:40.775Z,8.27
2019-04-20T02:15:13.042Z,7.23
2019-04-20T02:17:40.788Z,9.47
2019-04-20T02:20:26.037Z,8.37
2019-04-20T02:22:49.035Z,10.67
2019-04-20T02:24:57.160Z,8.30
2019-04-20T02:27:31.334Z,11.93
2019-04-20T02:30:14.380Z,10.57
2019-04-20T02:32:55.540Z,7.00
2019-04-20T02:35:36.475Z,12.70
2019-04-20T02:40:38.977Z,6.87
2019-04-20T02:45:52.841Z,8.83
2019-04-20T02:47:57.019Z,9.07
2019-04-20T02:50:28.669Z,13.03
2019-04-20T02:55:14.607Z,8.53
2019-04-20T02:57:47.840Z,7.60
2019-04-20T03:00:19.795Z,9.03
2019-04-20T03:02:23.527Z,9.03
2019-04-20T03:04:42.265Z,8.73
2019-04-20T03:07:15.227Z,9.10
2019-04-20T03:09:50.119Z,7.73
2019-04-20T03:12:23.928Z,9.87
2019-04-20T03:14:39.667Z,9.60
2019-04-20T03:17:15.258Z,10.93
2019-04-20T03:19:38.690Z,12.00
2019-04-20T03:24:38.791Z,8.20
2019-04-20T03:27:00.858Z,8.53
2019-04-20T03:29:54.924Z,8.70
2019-04-20T03:32:49.864Z,12.17
2019-04-20T03:37:27.011Z,10.20
2019-04-20T03:39:40.755Z,9.93
2019-04-20T03:41:56.678Z,9.40
2019-04-20T03:44:25.811Z,7.93
2019-04-20T03:46:57.204Z,9.60
2019-04-20T03:49:42.550Z,12.43
2019-04-20T03:52:23.452Z,11.90
2019-04-20T03:54:55.270Z,10.03
2019-04-20T03:57:34.351Z,9.43
2019-04-20T04:00:21.780Z,11.23
2019-04-20T04:03:08.472Z,10.70
2019-04-20T04:05:26.308Z,8.50
2019-04-20T04:07:42.118Z,13.00
2019-04-20T04:10:16.894Z,9.73
2019-04-20T04:12:39.561Z,15.07
2019-04-20T04:15:02.271Z,8.23
2019-04-20T04:17:34.913Z,9.67
2019-04-20T04:20:03.523Z,9.40
2019-04-20T04:22:40.059Z,10.77
2019-04-20T04:25:01.802Z,10.43
2019-04-20T04:27:38.910Z,10.70
2019-04-20T04:30:03.325Z,13.03
2019-04-20T04:33:00.414Z,10.43
2019-04-20T04:34:59.718Z,13.37
2019-04-20T04:37:25.514Z,9.10
2019-04-20T04:40:01.065Z,10.67
2019-04-20T04:42:30.379Z,9.27
2019-04-20T04:44:43.664Z,12.40
2019-04-20T04:47:04.395Z,11.60
2019-04-20T04:49:34.197Z,9.97
2019-04-20T04:52:01.626Z,10.53
2019-04-20T04:54:30.469Z,11.20
2019-04-20T04:56:50.410Z,10.57
2019-04-20T04:59:17.139Z,11.03
2019-04-20T05:01:47.792Z,9.77
2019-04-20T05:04:25.207Z,11.10
2019-04-20T05:06:53.230Z,12.00
2019-04-20T05:09:10.394Z,7.83
2019-04-20T05:11:34.993Z,11.30
2019-04-20T05:14:06.729Z,9.90
2019-04-20T05:16:47.067Z,9.80
2019-04-20T05:19:19.620Z,11.70
2019-04-20T05:21:47.699Z,9.40
2019-04-20T05:24:25.534Z,7.10
2019-04-20T05:27:03.071Z,8.27
2019-04-20T05:29:14.493Z,15.80
2019-04-20T05:31:43.425Z,12.60
2019-04-20T05:34:29.148Z,10.43
2019-04-20T05:36:49.291Z,8.50
2019-04-20T05:39:21.304Z,10.07
2019-04-20T05:41:42.008Z,18.00
2019-04-20T05:44:14.973Z,9.27
2019-04-20T05:46:41.024Z,9.03
2019-04-20T05:49:19.368Z,12.13
2019-04-20T05:51:39.520Z,12.57
2019-04-20T05:54:12.225Z,10.83
2019-04-20T05:56:40.043Z,9.73
2019-04-20T05:59:01.588Z,8.70
2019-04-20T06:01:31.755Z,8.87
2019-04-20T06:03:53.908Z,8.50
2019-04-20T06:06:29.198Z,16.37
2019-04-20T06:08:59.201Z,9.13
2019-04-20T06:11:22.092Z,10.27
2019-04-20T06:13:53.749Z,12.67
2019-04-20T06:16:38.360Z,7.83
2019-04-20T06:19:08.803Z,8.97
2019-04-20T06:21:31.258Z,10.10
2019-04-20T06:23:56.421Z,9.80
2019-04-20T06:26:35.229Z,23.23
2019-04-20T06:28:46.389Z,9.83
2019-04-20T06:31:24.654Z,14.00
2019-04-20T06:34:25.837Z,11.83
2019-04-20T06:36:42.957Z,15.50
2019-04-20T06:39:08.468Z,11.40
2019-04-20T06:41:45.549Z,15.20
2019-04-20T06:44:02.507Z,12.20
2019-04-20T06:46:22.494Z,12.77
2019-04-20T06:48:51.669Z,10.00
2019-04-20T06:51:22.376Z,8.67
2019-04-20T06:53:51.105Z,11.63
2019-04-20T06:56:24.754Z,11.40
2019-04-20T06:58:54.860Z,13.93
2019-04-20T07:01:20.147Z,14.30
2019-04-20T07:04:07.401Z,10.83
2019-04-20T07:06:30.316Z,10.70
2019-04-20T07:09:00.596Z,8.40
2019-04-20T07:11:16.598Z,10.00
2019-04-20T07:13:28.744Z,6.63
2019-04-20T07:15:56.957Z,13.30
2019-04-20T07:18:35.270Z,7.73
2019-04-20T07:21:07.186Z,8.60
2019-04-20T07:23:31.262Z,9.00
2019-04-20T07:26:02.088Z,9.13
2019-04-20T07:28:32.766Z,13.40
2019-04-20T07:30:59.704Z,14.30
2019-04-20T07:33:26.670Z,12.53
2019-04-20T07:35:50.821Z,11.50
2019-04-20T07:40:42.881Z,8.63
2019-04-20T07:43:07.945Z,9.00
2019-04-20T07:45:45.636Z,9.87
2019-04-20T07:48:11.295Z,6.67
2019-04-20T07:50:33.399Z,7.13
2019-04-20T07:52:51.103Z,17.90
2019-04-20T07:55:44.321Z,10.63
2019-04-20T07:57:55.150Z,6.40
2019-04-20T08:00:35.557Z,8.17
2019-04-20T08:03:12.432Z,14.00
2019-04-20T08:05:33.761Z,6.60
2019-04-20T08:08:02.686Z,8.47
2019-04-20T08:10:36.545Z,8.30
2019-04-20T08:13:09.514Z,6.50
2019-04-20T08:18:13.679Z,11.60
2019-04-20T08:20:29.905Z,10.05
2019-04-20T08:22:53.047Z,5.33
2019-04-20T08:25:14.306Z,9.53
2019-04-20T08:27:48.793Z,6.75
2019-04-20T08:30:33.984Z,6.75
2019-04-20T08:32:58.418Z,13.60
2019-04-20T08:35:44.142Z,8.75
2019-04-20T08:38:26.732Z,4.67
2019-04-20T08:40:34.231Z,7.03
2019-04-20T08:43:09.458Z,11.87
2019-04-20T08:45:31.665Z,5.77
2019-04-20T08:47:57.038Z,8.47
2019-04-20T08:55:19.116Z,7.90
2019-04-20T08:57:24.732Z,9.07
2019-04-20T08:59:51.425Z,10.43
2019-04-20T09:02:19.115Z,5.07
2019-04-20T09:04:54.085Z,8.93
2019-04-20T09:07:19.619Z,11.10
2019-04-20T09:10:04.772Z,10.50
2019-04-20T09:12:26.754Z,9.37
2019-04-20T09:14:39.430Z,8.23
2019-04-20T09:17:10.262Z,9.00
2019-04-20T09:19:45.065Z,6.53
2019-04-20T09:22:31.536Z,5.60
2019-04-20T09:25:25.087Z,7.77
2019-04-20T09:27:26.873Z,5.60
2019-04-20T09:30:02.031Z,12.43
2019-04-20T09:32:33.276Z,10.83
2019-04-20T09:35:00.011Z,10.93
2019-04-20T09:37:27.841Z,7.30
2019-04-20T09:39:54.371Z,13.23
2019-04-20T09:42:23.499Z,11.93
2019-04-20T09:44:53.505Z,10.20
2019-04-20T09:47:23.805Z,8.37
2019-04-20T09:49:57.085Z,6.90
2019-04-20T09:52:27.015Z,5.90
2019-04-20T09:54:55.134Z,9.17
2019-04-20T09:57:28.334Z,7.83
2019-04-20T09:59:55.160Z,9.47
2019-04-20T10:02:07.716Z,6.67
2019-04-20T10:04:29.175Z,8.27
2019-04-20T10:06:55.225Z,12.67
2019-04-20T10:09:30.575Z,10.50
2019-04-20T10:11:50.540Z,6.03
2019-04-20T10:14:16.479Z,9.23
2019-04-20T10:16:44.117Z,8.10
2019-04-20T10:19:11.746Z,19.33
2019-04-20T10:21:38.207Z,6.70
2019-04-20T10:24:03.964Z,12.20
2019-04-20T10:26:30.247Z,10.70
2019-04-20T10:28:57.382Z,12.60
2019-04-20T10:31:24.547Z,7.60
2019-04-20T10:33:51.403Z,12.57
2019-04-20T10:36:25.705Z,9.93
2019-04-20T10:38:52.634Z,11.50
2019-04-20T10:41:31.658Z,13.50
2019-04-20T10:43:46.987Z,9.53
2019-04-20T10:46:13.172Z,8.73
2019-04-20T10:48:47.219Z,5.83
2019-04-20T10:51:08.259Z,10.23
2019-04-20T10:53:34.796Z,6.73
2019-04-20T10:56:03.336Z,6.80
2019-04-20T10:58:29.569Z,7.70
2019-04-20T11:00:55.735Z,12.60
2019-04-20T11:03:22.719Z,10.90
2019-04-20T11:05:48.943Z,8.03
2019-04-20T11:08:14.911Z,8.70
2019-04-20T11:10:55.397Z,8.07
2019-04-20T11:13:09.644Z,8.10
2019-04-20T11:15:36.594Z,9.80
2019-04-20T11:18:03.704Z,7.90
2019-04-20T11:20:29.492Z,6.80
2019-04-20T11:22:56.032Z,7.13
2019-04-20T11:25:22.108Z,7.03
2019-04-20T11:27:48.120Z,8.73
2019-04-20T11:30:14.257Z,10.43
2019-04-20T11:32:40.211Z,10.23
2019-04-20T11:35:09.006Z,12.60
2019-04-20T11:37:35.116Z,10.77
2019-04-20T11:40:01.385Z,7.80
2019-04-20T11:42:27.737Z,13.27
2019-04-20T11:44:54.928Z,6.10
2019-04-20T11:47:21.714Z,5.57
2019-04-20T11:49:47.585Z,13.00
2019-04-20T11:52:14.217Z,9.60
2019-04-20T11:54:40.656Z,17.07
2019-04-20T11:57:07.062Z,8.30
2019-04-20T11:59:32.895Z,14.13
2019-04-20T12:02:05.840Z,8.77
2019-04-20T12:04:42.117Z,8.23
2019-04-20T12:07:01.287Z,8.53
2019-04-20T12:09:27.076Z,6.63
2019-04-20T12:12:06.103Z,11.23
2019-04-20T12:14:20.779Z,9.80
2019-04-20T12:16:47.736Z,6.73
2019-04-20T12:19:14.597Z,7.10
2019-04-20T12:21:40.925Z,8.30
2019-04-20T12:24:07.813Z,9.43
2019-04-20T12:26:33.359Z,6.03
2019-04-20T12:29:01.370Z,7.47
2019-04-20T12:31:27.679Z,4.70
2019-04-20T12:33:54.861Z,5.67
2019-04-20T12:36:20.598Z,16.10
2019-04-20T12:38:46.395Z,7.60
2019-04-20T12:41:13.995Z,5.00
2019-04-20T12:43:39.473Z,4.70
2019-04-20T12:46:05.727Z,5.20
2019-04-20T12:48:31.502Z,5.13
2019-04-20T12:50:57.550Z,7.53
2019-04-20T12:53:24.413Z,6.10
2019-04-20T12:55:50.747Z,10.03
2019-04-20T12:58:16.720Z,4.70
2019-04-20T13:00:44.002Z,13.83
2019-04-20T13:03:09.603Z,8.00
2019-04-20T13:05:36.012Z,12.77
2019-04-20T13:08:03.936Z,11.87
2019-04-20T13:10:29.589Z,6.80
2019-04-20T13:13:04.576Z,14.27
2019-04-20T13:15:42.626Z,4.87
2019-04-20T13:18:09.446Z,5.20
2019-04-20T13:20:36.213Z,5.90
2019-04-20T13:23:03.867Z,4.30
2019-04-20T13:25:30.841Z,12.67
2019-04-20T13:27:56.931Z,6.33
2019-04-20T13:30:23.868Z,5.37
2019-04-20T13:32:49.941Z,7.80
2019-04-20T13:35:16.314Z,5.43
2019-04-20T13:37:43.467Z,4.07
2019-04-20T13:40:11.211Z,7.13
2019-04-20T13:42:38.075Z,7.03
2019-04-20T13:45:04.606Z,4.20
2019-04-20T13:47:30.577Z,4.73
2019-04-20T13:49:56.855Z,7.53
2019-04-20T13:52:22.827Z,5.23
2019-04-20T13:54:48.488Z,5.43
2019-04-20T13:57:33.793Z,6.63
2019-04-20T14:00:22.150Z,9.90
2019-04-20T14:02:53.982Z,7.13
2019-04-20T14:05:34.929Z,3.77
2019-04-20T14:08:03.255Z,4.97
2019-04-20T14:10:29.233Z,3.67
2019-04-20T14:13:01.570Z,6.00
2019-04-20T14:15:22.939Z,3.53
2019-04-20T14:17:51.125Z,3.30
2019-04-20T14:20:20.199Z,3.50
2019-04-20T14:22:45.190Z,5.47
2019-04-20T14:25:11.196Z,8.13
2019-04-20T14:27:37.145Z,5.73
2019-04-20T14:30:04.111Z,6.80
2019-04-20T14:32:30.565Z,7.83
2019-04-20T14:34:56.855Z,6.10
2019-04-20T14:37:22.755Z,7.10
2019-04-20T14:39:48.422Z,7.23
2019-04-20T14:42:27.926Z,6.27
2019-04-20T14:44:43.646Z,18.10
2019-04-20T14:47:09.836Z,5.20
2019-04-20T14:49:36.701Z,9.30
2019-04-20T14:52:03.158Z,5.33
2019-04-20T14:54:30.086Z,5.80
2019-04-20T14:56:55.893Z,7.37
2019-04-20T14:59:35.908Z,4.83
2019-04-20T15:02:03.600Z,6.60
2019-04-20T15:04:30.721Z,4.90
2019-04-20T15:06:57.354Z,7.60
2019-04-20T15:09:23.050Z,7.40
2019-04-20T15:11:50.754Z,4.53
2019-04-20T15:14:16.565Z,4.80
2019-04-20T15:16:44.504Z,4.83
2019-04-20T15:19:13.670Z,3.93
2019-04-20T15:21:45.361Z,3.33
2019-04-20T15:24:11.393Z,10.23
2019-04-20T15:26:38.362Z,4.83
2019-04-20T15:29:04.481Z,3.63
2019-04-20T15:31:32.178Z,3.80
2019-04-20T15:33:59.099Z,3.20
2019-04-20T15:36:26.193Z,9.73
2019-04-20T15:38:53.260Z,4.90
2019-04-20T15:41:19.120Z,4.90
2019-04-20T15:43:45.697Z,6.30
2019-04-20T15:46:13.013Z,6.53
2019-04-20T15:48:39.860Z,5.90
2019-04-20T15:51:05.732Z,10.20
2019-04-20T15:53:31.741Z,7.90
2019-04-20T15:55:57.639Z,6.90
2019-04-20T15:58:24.414Z,8.00
2019-04-20T16:00:51.322Z,7.70
2019-04-20T16:03:35.184Z,6.70
2019-04-20T16:06:03.511Z,5.77
2019-04-20T16:08:32.487Z,5.80
2019-04-20T16:10:59.395Z,5.27
2019-04-20T16:13:32.106Z,6.60
2019-04-20T16:15:53.774Z,5.80
2019-04-20T16:18:20.844Z,5.50
2019-04-20T16:20:56.498Z,7.77
2019-04-20T16:23:14.544Z,4.53
2019-04-20T16:25:59.610Z,9.23
2019-04-20T16:28:25.663Z,7.77
2019-04-20T16:30:51.753Z,5.63
2019-04-20T16:33:18.611Z,8.27
2019-04-20T16:35:44.612Z,9.40
2019-04-20T16:38:10.755Z,5.70
2019-04-20T16:40:37.723Z,6.87
2019-04-20T16:43:15.279Z,10.07
2019-04-20T16:45:31.259Z,5.50
2019-04-20T16:47:59.699Z,7.70
2019-04-20T16:50:24.746Z,15.27
2019-04-20T16:52:50.796Z,5.73
2019-04-20T16:55:16.711Z,5.93
2019-04-20T16:57:45.039Z,9.33
2019-04-20T17:00:11.443Z,7.60
2019-04-20T17:02:38.224Z,6.90
2019-04-20T17:05:05.231Z,10.67
2019-04-20T17:07:37.171Z,7.83
2019-04-20T17:10:04.752Z,8.87
2019-04-20T17:12:30.889Z,10.90
2019-04-20T17:14:57.703Z,9.80
2019-04-20T17:17:23.502Z,12.27
2019-04-20T17:19:49.343Z,11.20
2019-04-20T17:22:15.194Z,9.80
2019-04-20T17:24:40.824Z,13.10
2019-04-20T17:27:26.748Z,13.63
2019-04-20T17:30:13.883Z,12.33
2019-04-20T17:32:41.253Z,10.50
2019-04-20T17:35:19.395Z,14.27
2019-04-20T17:37:39.849Z,12.60
2019-04-20T17:40:26.501Z,12.43
2019-04-20T17:42:44.834Z,12.57
2019-04-20T17:45:06.086Z,15.33
2019-04-20T17:47:44.845Z,14.90
2019-04-20T17:50:13.180Z,12.00
2019-04-20T17:52:42.926Z,12.43
2019-04-20T17:54:55.882Z,9.87
2019-04-20T17:57:21.611Z,9.53
2019-04-20T17:59:53.002Z,12.60
2019-04-20T18:02:43.205Z,12.50
2019-04-20T18:05:22.925Z,21.03
2019-04-20T18:07:45.337Z,15.10
2019-04-20T18:10:11.436Z,13.10
2019-04-20T18:12:31.350Z,12.23
2019-04-20T18:15:06.495Z,13.97
2019-04-20T18:17:32.115Z,17.23
2019-04-20T18:19:49.006Z,11.47
2019-04-20T18:22:15.957Z,15.10
2019-04-20T18:25:02.569Z,12.87
2019-04-20T18:27:36.158Z,16.47
2019-04-20T18:29:53.396Z,15.50
2019-04-20T18:32:23.085Z,14.50
2019-04-20T18:34:59.919Z,16.33
2019-04-20T18:37:25.691Z,21.50
2019-04-20T18:39:57.381Z,17.93
2019-04-20T18:42:26.895Z,17.23
2019-04-20T18:45:10.475Z,16.77
2019-04-20T18:47:33.548Z,18.57
2019-04-20T18:49:51.402Z,23.70
2019-04-20T18:52:09.497Z,22.10
2019-04-20T18:54:40.116Z,24.67
2019-04-20T18:57:03.620Z,28.27
2019-04-20T18:59:39.627Z,18.17
2019-04-20T19:01:57.531Z,21.90
2019-04-20T19:04:23.734Z,17.20
2019-04-20T19:06:50.015Z,24.33
2019-04-20T19:09:21.574Z,19.23
2019-04-20T19:11:52.154Z,22.73
2019-04-20T19:14:28.518Z,23.80
2019-04-20T19:17:02.072Z,22.10
2019-04-20T19:19:28.566Z,21.40
2019-04-20T19:21:45.960Z,32.63
2019-04-20T19:24:15.888Z,20.00
2019-04-20T19:26:44.995Z,23.80
2019-04-20T19:29:15.656Z,24.90
2019-04-20T19:31:51.038Z,24.87
2019-04-20T19:34:18.833Z,19.10
2019-04-20T19:36:37.179Z,19.70
2019-04-20T19:39:17.305Z,22.20
2019-04-20T19:41:38.941Z,22.67
2019-04-20T19:44:09.159Z,21.00
2019-04-20T19:46:55.467Z,20.33
2019-04-20T19:48:56.063Z,22.07
2019-04-20T19:51:40.888Z,29.93
2019-04-20T19:54:06.565Z,32.87
2019-04-20T19:56:33.685Z,25.03
2019-04-20T19:58:57.143Z,28.83
2019-04-20T20:01:09.441Z,25.30
2019-04-20T20:03:35.522Z,27.33
2019-04-20T20:06:01.510Z,30.90
2019-04-20T20:08:31.043Z,28.53
2019-04-20T20:10:58.188Z,27.33
2019-04-20T20:13:27.666Z,28.90
2019-04-20T20:15:59.475Z,23.70
2019-04-20T20:18:33.084Z,27.87
2019-04-20T20:21:03.977Z,29.60
2019-04-20T20:23:14.116Z,29.77
2019-04-20T20:25:44.873Z,24.80
2019-04-20T20:28:21.167Z,25.57
2019-04-20T20:30:49.677Z,25.33
2019-04-20T20:33:24.415Z,26.83
2019-04-20T20:35:36.717Z,25.00
2019-04-20T20:38:01.159Z,25.80
2019-04-20T20:40:31.141Z,24.80
2019-04-20T20:43:09.724Z,28.33
2019-04-20T20:45:30.789Z,25.80
2019-04-20T20:48:09.468Z,28.83
2019-04-20T20:50:36.474Z,29.73
2019-04-20T20:52:54.844Z,28.30
2019-04-20T20:55:24.589Z,29.53
2019-04-20T20:57:50.866Z,27.93
2019-04-20T21:00:19.363Z,27.83
2019-04-20T21:02:44.818Z,28.87
2019-04-20T21:05:05.999Z,30.17
2019-04-20T21:07:32.049Z,22.70
2019-04-20T21:09:58.732Z,28.03
2019-04-20T21:12:25.754Z,25.37
2019-04-20T21:14:53.102Z,24.40
2019-04-20T21:17:23.398Z,24.67
2019-04-20T21:20:03.744Z,27.53
2019-04-20T21:22:22.655Z,21.50
2019-04-20T21:24:46.733Z,24.83
2019-04-20T21:27:14.902Z,28.77
2019-04-20T21:29:46.716Z,28.97
2019-04-20T21:32:11.868Z,25.20
2019-04-20T21:34:33.445Z,25.33
2019-04-20T21:37:05.620Z,27.80
2019-04-20T21:39:37.077Z,28.37
2019-04-20T21:42:00.113Z,29.13
2019-04-20T21:44:26.743Z,31.13
2019-04-20T21:46:52.893Z,28.60
2019-04-20T21:49:31.209Z,28.13
2019-04-20T21:51:50.235Z,29.63
2019-04-20T21:54:12.024Z,24.90
2019-04-20T21:56:46.112Z,26.67
2019-04-20T21:59:14.408Z,27.57
2019-04-20T22:01:39.032Z,29.03
2019-04-20T22:04:00.507Z,30.80
2019-04-20T22:06:26.610Z,26.07
2019-04-20T22:08:57.717Z,30.57
2019-04-20T22:11:20.065Z,29.00
2019-04-20T22:13:47.758Z,32.63
2019-04-20T22:16:15.173Z,28.43
2019-04-20T22:18:54.047Z,30.37
2019-04-20T22:21:19.880Z,28.80
2019-04-20T22:23:51.210Z,29.40
2019-04-20T22:26:14.232Z,26.97
2019-04-20T22:28:31.982Z,30.73
2019-04-20T22:30:58.041Z,30.30
2019-04-20T22:33:31.424Z,23.97
2019-04-20T22:35:57.683Z,25.97
2019-04-20T22:38:22.612Z,25.13
2019-04-20T22:40:48.997Z,23.47
2019-04-20T22:43:18.001Z,27.30
2019-04-20T22:45:46.980Z,23.97
2019-04-20T22:48:12.822Z,34.73
2019-04-20T22:50:51.298Z,24.80
2019-04-20T22:53:22.593Z,28.20
2019-04-20T22:55:59.108Z,24.57
2019-04-20T22:58:17.772Z,28.63
2019-04-20T23:00:38.641Z,28.37
2019-04-20T23:02:56.620Z,26.20
2019-04-20T23:05:22.783Z,28.57
2019-04-20T23:07:48.792Z,28.43
2019-04-20T23:10:18.193Z,27.77
2019-04-20T23:12:46.890Z,30.33
2019-04-20T23:15:10.391Z,25.20
2019-04-20T23:17:40.791Z,27.40
2019-04-20T23:20:13.303Z,32.60
2019-04-20T23:22:36.969Z,27.00
2019-04-20T23:24:59.612Z,28.13
2019-04-20T23:27:31.268Z,29.40
2019-04-20T23:29:53.202Z,38.43
2019-04-20T23:32:21.780Z,34.70
2019-04-20T23:34:49.029Z,27.53
2019-04-20T23:37:20.412Z,28.87
2019-04-20T23:39:45.292Z,27.90
2019-04-20T23:42:12.990Z,29.87
2019-04-20T23:44:47.278Z,27.53
2019-04-20T23:47:14.660Z,35.63
2019-04-20T23:50:00.228Z,29.13
2019-04-20T23:52:31.625Z,29.30
2019-04-20T23:54:35.142Z,28.70
2019-04-20T23:57:01.784Z,24.67
2019-04-20T23:59:34.363Z,27.27
